createdAt,value
2023-04-01T00:04:44.705Z,17.08
2023-04-01T00:09:48.858Z,13.13
2023-04-01T00:14:51.574Z,12.00
2023-04-01T00:19:55.516Z,12.50
2023-04-01T00:24:59.613Z,12.95
2023-04-01T00:30:27.730Z,9.48
2023-04-01T00:35:30.774Z,13.00
2023-04-01T00:40:37.390Z,10.77
2023-04-01T00:45:42.143Z,10.85
2023-04-01T00:50:47.190Z,11.85
2023-04-01T00:55:56.338Z,11.15
2023-04-01T01:01:00.992Z,12.52
2023-04-01T01:06:13.277Z,11.15
2023-04-01T01:11:23.564Z,12.27
2023-04-01T01:16:29.091Z,12.57
2023-04-01T01:21:53.877Z,10.95
2023-04-01T01:27:03.814Z,9.02
2023-04-01T01:32:17.571Z,9.27
2023-04-01T01:37:23.450Z,9.50
2023-04-01T01:42:28.169Z,7.15
2023-04-01T01:47:31.644Z,8.70
2023-04-01T01:52:36.024Z,8.20
2023-04-01T01:57:40.168Z,8.32
2023-04-01T02:02:53.314Z,8.15
2023-04-01T02:08:03.643Z,9.40
2023-04-01T02:13:12.070Z,7.35
2023-04-01T02:18:15.686Z,7.18
2023-04-01T02:23:20.025Z,7.68
2023-04-01T02:28:23.027Z,6.30
2023-04-01T02:33:25.973Z,7.45
2023-04-01T02:38:30.189Z,5.68
2023-04-01T02:43:33.003Z,6.60
2023-04-01T02:48:35.788Z,5.20
2023-04-01T02:53:39.860Z,6.72
2023-04-01T02:58:42.663Z,6.13
2023-04-01T03:03:45.425Z,5.90
2023-04-01T03:08:49.648Z,5.28
2023-04-01T03:13:52.424Z,5.70
2023-04-01T03:18:57.810Z,4.13
2023-04-01T03:24:11.816Z,6.05
2023-04-01T03:29:16.546Z,4.88
2023-04-01T03:34:20.368Z,3.88
2023-04-01T03:39:24.612Z,4.88
2023-04-01T03:44:27.304Z,5.75
2023-04-01T03:49:33.049Z,5.18
2023-04-01T03:54:37.480Z,4.00
2023-04-01T03:59:40.427Z,5.88
2023-04-01T04:04:43.651Z,4.10
2023-04-01T04:09:48.761Z,5.00
2023-04-01T04:14:51.591Z,4.72
2023-04-01T04:19:54.348Z,3.53
2023-04-01T04:24:59.394Z,3.88
2023-04-01T04:30:02.264Z,5.15
2023-04-01T04:35:07.436Z,4.68
2023-04-01T04:40:12.818Z,4.93
2023-04-01T04:45:16.162Z,3.40
2023-04-01T04:50:27.950Z,4.93
2023-04-01T04:55:32.552Z,4.55
2023-04-01T05:00:54.001Z,3.28
2023-04-01T05:06:02.451Z,3.65
2023-04-01T05:11:13.598Z,2.33
2023-04-01T05:16:19.500Z,3.28
2023-04-01T05:21:22.324Z,3.03
2023-04-01T05:26:26.452Z,2.83
2023-04-01T05:31:29.448Z,3.90
2023-04-01T05:36:34.059Z,2.40
2023-04-01T05:41:38.523Z,2.75
2023-04-01T05:46:41.369Z,3.50
2023-04-01T05:51:52.137Z,2.33
2023-04-01T05:56:56.519Z,2.10
2023-04-01T06:02:00.003Z,2.47
2023-04-01T06:07:03.218Z,2.25
2023-04-01T06:12:38.217Z,2.55
2023-04-01T06:17:50.249Z,2.83
2023-04-01T06:23:19.880Z,2.45
2023-04-01T06:28:45.961Z,2.03
2023-04-01T06:33:58.323Z,2.58
2023-04-01T06:39:15.310Z,1.67
2023-04-01T06:44:26.593Z,1.55
2023-04-01T06:49:53.976Z,2.60
2023-04-01T06:55:25.436Z,2.67
2023-04-01T07:00:57.162Z,1.10
2023-04-01T07:06:02.136Z,1.63
2023-04-01T07:11:06.082Z,1.60
2023-04-01T07:16:32.368Z,2.25
2023-04-01T07:21:38.014Z,1.38
2023-04-01T07:26:51.276Z,1.92
2023-04-01T07:32:18.377Z,2.88
2023-04-01T07:37:26.732Z,2.35
2023-04-01T07:42:37.747Z,1.45
2023-04-01T07:47:57.623Z,1.85
2023-04-01T07:53:10.355Z,2.42
2023-04-01T07:58:18.415Z,1.80
2023-04-01T08:03:40.938Z,2.15
2023-04-01T08:08:52.944Z,2.10
2023-04-01T08:14:16.224Z,1.40
2023-04-01T08:19:42.363Z,1.80
2023-04-01T08:24:48.296Z,2.70
2023-04-01T08:30:00.912Z,1.77
2023-04-01T08:35:10.652Z,4.30
2023-04-01T08:40:32.392Z,1.98
2023-04-01T08:45:50.011Z,1.80
2023-04-01T08:57:26.346Z,1.70
2023-04-01T09:03:21.658Z,3.17
2023-04-01T09:08:42.339Z,2.30
2023-04-01T09:14:19.779Z,3.47
2023-04-01T09:19:46.942Z,3.35
2023-04-01T09:25:23.433Z,2.35
2023-04-01T09:30:45.766Z,2.20
2023-04-01T09:35:49.759Z,3.63
2023-04-01T09:40:58.679Z,4.10
2023-04-01T09:46:26.101Z,3.17
2023-04-01T09:51:36.196Z,8.65
2023-04-01T09:57:18.770Z,5.93
2023-04-01T10:03:15.539Z,3.95
2023-04-01T10:08:53.958Z,2.03
2023-04-01T10:14:29.451Z,5.63
2023-04-01T10:19:54.155Z,3.38
2023-04-01T10:25:23.999Z,2.25
2023-04-01T10:31:17.112Z,6.03
2023-04-01T10:36:54.668Z,7.65
2023-04-01T10:42:47.308Z,3.90
2023-04-01T10:48:57.094Z,2.83
2023-04-01T10:54:19.861Z,2.50
2023-04-01T11:00:32.516Z,2.72
2023-04-01T11:06:39.749Z,4.45
2023-04-01T11:12:34.068Z,4.70
2023-04-01T11:17:55.314Z,2.85
2023-04-01T11:23:13.781Z,3.08
2023-04-01T11:28:36.131Z,2.50
2023-04-01T11:33:45.284Z,2.85
2023-04-01T11:38:59.713Z,2.13
2023-04-01T11:44:23.772Z,3.42
2023-04-01T11:49:52.233Z,3.60
2023-04-01T11:55:30.876Z,2.90
2023-04-01T12:00:52.726Z,3.08
2023-04-01T12:05:57.229Z,3.63
2023-04-01T12:11:03.393Z,3.40
2023-04-01T12:16:18.789Z,4.50
2023-04-01T12:21:28.078Z,3.38
2023-04-01T12:26:43.751Z,5.85
2023-04-01T12:31:55.005Z,4.90
2023-04-01T12:37:04.917Z,3.30
2023-04-01T12:42:16.774Z,4.30
2023-04-01T12:47:41.526Z,5.30
2023-04-01T12:52:57.305Z,8.65
2023-04-01T12:58:13.079Z,6.20
2023-04-01T13:03:30.057Z,6.70
2023-04-01T13:08:41.453Z,8.18
2023-04-01T13:14:11.877Z,7.18
2023-04-01T13:19:23.893Z,6.97
2023-04-01T13:24:33.590Z,5.90
2023-04-01T13:29:38.701Z,7.72
2023-04-01T13:34:53.609Z,6.32
2023-04-01T13:40:07.133Z,5.78
2023-04-01T13:45:16.384Z,6.15
2023-04-01T13:50:38.064Z,6.65
2023-04-01T13:55:56.855Z,6.65
2023-04-01T14:01:07.712Z,7.40
2023-04-01T14:06:20.737Z,6.50
2023-04-01T14:11:28.408Z,5.93
2023-04-01T14:16:59.254Z,5.85
2023-04-01T14:33:27.786Z,5.38
2023-04-01T14:38:36.246Z,4.82
2023-04-01T14:44:03.595Z,5.57
2023-04-01T14:49:17.659Z,5.90
2023-04-01T14:54:23.846Z,5.88
2023-04-01T14:59:30.521Z,6.20
2023-04-01T15:04:49.390Z,6.38
2023-04-01T15:09:57.351Z,4.53
2023-04-01T15:15:19.002Z,4.22
2023-04-01T15:20:36.028Z,4.45
2023-04-01T15:25:49.236Z,4.80
2023-04-01T15:30:56.694Z,3.70
2023-04-01T15:36:06.518Z,4.10
2023-04-01T15:41:14.960Z,5.05
2023-04-01T15:46:44.311Z,10.63
2023-04-01T15:51:57.750Z,9.05
2023-04-01T15:57:12.431Z,9.10
2023-04-01T16:02:21.446Z,12.93
2023-04-01T16:07:59.321Z,12.45
2023-04-01T16:13:13.112Z,14.25
2023-04-01T16:18:27.601Z,11.23
2023-04-01T16:23:38.595Z,15.18
2023-04-01T16:28:47.223Z,12.40
2023-04-01T16:33:53.188Z,9.45
2023-04-01T16:39:10.927Z,11.35
2023-04-01T16:44:20.349Z,12.23
2023-04-01T16:49:41.960Z,11.38
2023-04-01T16:54:50.602Z,9.07
2023-04-01T16:59:59.678Z,9.30
2023-04-01T17:05:05.374Z,10.05
2023-04-01T17:10:28.788Z,7.90
2023-04-01T17:15:37.178Z,11.30
2023-04-01T17:20:44.510Z,10.18
2023-04-01T17:25:55.570Z,9.00
2023-04-01T17:31:05.028Z,9.07
2023-04-01T17:36:13.986Z,8.55
2023-04-01T17:41:28.183Z,7.93
2023-04-01T17:46:52.759Z,12.82
2023-04-01T18:30:34.934Z,19.00
2023-04-01T18:35:49.959Z,20.35
2023-04-01T18:40:56.556Z,19.20
2023-04-01T18:46:02.917Z,20.90
2023-04-01T18:51:13.462Z,21.00
2023-04-01T18:56:17.955Z,19.92
2023-04-01T19:01:26.576Z,20.52
2023-04-01T19:06:33.173Z,20.65
2023-04-01T19:55:58.211Z,12.98
2023-04-01T20:40:37.058Z,9.77
2023-04-01T20:45:45.721Z,17.02
2023-04-01T20:50:52.043Z,14.90
2023-04-01T21:34:44.446Z,9.02
2023-04-01T21:40:45.013Z,8.25
2023-04-01T21:46:06.813Z,9.00
2023-04-01T21:51:27.500Z,8.10
2023-04-01T21:56:54.014Z,8.02
2023-04-01T22:02:32.823Z,8.52
2023-04-01T22:07:41.166Z,7.85
2023-04-01T22:12:48.005Z,7.43
2023-04-01T22:17:55.949Z,7.50
2023-04-01T22:23:14.692Z,7.78
2023-04-01T22:28:21.838Z,7.32
2023-04-01T22:33:32.094Z,10.50
2023-04-01T22:38:48.333Z,7.15
2023-04-01T22:43:58.070Z,8.48
2023-04-01T22:49:04.719Z,7.10
2023-04-01T22:54:17.026Z,7.47
2023-04-01T22:59:23.280Z,5.65
2023-04-01T23:04:29.019Z,7.32
2023-04-01T23:09:33.844Z,8.35
2023-04-01T23:14:47.508Z,6.20
2023-04-01T23:19:54.879Z,10.15
2023-04-01T23:25:14.434Z,5.25
2023-04-01T23:30:48.902Z,3.28
2023-04-01T23:35:52.095Z,3.92
2023-04-01T23:40:57.068Z,4.85
2023-04-01T23:46:01.449Z,3.75
2023-04-01T23:51:05.302Z,4.15
2023-04-01T23:56:09.398Z,4.25
